createdAt,value
2023-01-13T00:01:12.664Z,10.38
2023-01-13T00:05:31.588Z,10.33
2023-01-13T00:09:35.315Z,10.30
2023-01-13T00:13:39.943Z,10.30
2023-01-13T00:17:48.704Z,10.32
2023-01-13T00:21:54.779Z,10.29
2023-01-13T00:26:00.859Z,10.31
2023-01-13T00:30:08.547Z,10.29
2023-01-13T00:34:15.701Z,10.23
2023-01-13T00:38:25.287Z,10.19
2023-01-13T00:42:46.741Z,10.15
2023-01-13T00:46:50.472Z,10.08
2023-01-13T00:50:57.584Z,10.11
2023-01-13T00:55:03.035Z,10.07
2023-01-13T00:59:06.655Z,9.99
2023-01-13T01:03:12.403Z,9.93
2023-01-13T01:07:20.396Z,9.89
2023-01-13T01:11:29.124Z,9.82
2023-01-13T01:15:39.789Z,9.75
2023-01-13T01:19:43.070Z,9.64
2023-01-13T01:23:46.330Z,9.56
2023-01-13T01:27:51.022Z,9.45
2023-01-13T01:31:54.643Z,9.41
2023-01-13T01:35:58.020Z,9.34
2023-01-13T01:40:01.362Z,9.29
2023-01-13T01:44:50.637Z,9.25
2023-01-13T01:48:56.554Z,9.23
2023-01-13T01:53:04.022Z,9.19
2023-01-13T01:57:10.529Z,9.18
2023-01-13T02:01:16.115Z,9.18
2023-01-13T02:05:20.402Z,9.14
2023-01-13T02:09:23.837Z,9.16
2023-01-13T02:13:27.199Z,9.13
2023-01-13T02:18:00.436Z,9.08
2023-01-13T02:22:19.599Z,9.08
2023-01-13T02:27:10.584Z,9.06
2023-01-13T02:31:34.194Z,9.00
2023-01-13T02:35:47.430Z,8.98
2023-01-13T02:39:58.389Z,8.96
2023-01-13T02:44:06.810Z,8.91
2023-01-13T02:48:14.977Z,8.85
2023-01-13T02:52:24.231Z,8.82
2023-01-13T02:56:28.194Z,8.79
2023-01-13T03:00:33.711Z,8.77
2023-01-13T03:04:54.032Z,8.72
2023-01-13T03:09:04.544Z,8.66
2023-01-13T03:13:18.724Z,8.62
2023-01-13T03:17:33.038Z,8.62
2023-01-13T03:21:44.989Z,8.57
2023-01-13T03:25:54.434Z,8.52
2023-01-13T03:30:01.312Z,8.50
2023-01-13T03:34:10.830Z,8.51
2023-01-13T03:38:23.535Z,8.53
2023-01-13T03:42:29.588Z,8.52
2023-01-13T03:46:39.719Z,8.52
2023-01-13T03:50:49.189Z,8.52
2023-01-13T03:54:58.106Z,8.48
2023-01-13T03:59:05.060Z,8.48
2023-01-13T04:03:12.536Z,8.53
2023-01-13T04:07:25.043Z,8.52
2023-01-13T04:11:35.161Z,8.49
2023-01-13T04:15:41.134Z,8.57
2023-01-13T04:19:44.747Z,8.51
2023-01-13T04:23:51.447Z,8.51
2023-01-13T04:28:00.240Z,8.52
2023-01-13T04:32:03.941Z,8.52
2023-01-13T04:36:07.755Z,8.51
2023-01-13T04:40:11.789Z,8.52
2023-01-13T04:44:17.128Z,8.53
2023-01-13T04:48:20.517Z,8.59
2023-01-13T04:52:23.785Z,8.60
2023-01-13T04:56:26.928Z,8.58
2023-01-13T05:00:32.989Z,8.60
2023-01-13T05:04:36.024Z,8.60
2023-01-13T05:08:39.160Z,8.63
2023-01-13T05:13:00.057Z,8.63
2023-01-13T05:17:05.040Z,8.58
2023-01-13T05:21:28.652Z,8.58
2023-01-13T05:25:30.668Z,8.54
2023-01-13T05:29:33.691Z,8.50
2023-01-13T05:33:39.401Z,8.46
2023-01-13T05:37:42.363Z,8.46
2023-01-13T05:42:03.156Z,8.36
2023-01-13T05:46:25.567Z,8.31
2023-01-13T05:50:29.857Z,8.28
2023-01-13T05:54:41.550Z,8.25
2023-01-13T05:58:44.812Z,8.20
2023-01-13T06:02:48.151Z,8.18
2023-01-13T06:06:52.722Z,8.16
2023-01-13T06:10:55.894Z,8.18
2023-01-13T06:15:07.365Z,8.13
2023-01-13T06:19:12.992Z,8.13
2023-01-13T06:23:18.960Z,8.16
2023-01-13T06:27:22.341Z,8.18
2023-01-13T06:31:28.748Z,8.18
2023-01-13T06:35:38.087Z,8.20
2023-01-13T06:39:49.792Z,8.21
2023-01-13T06:44:03.881Z,8.23
2023-01-13T06:48:08.186Z,8.29
2023-01-13T06:52:11.747Z,8.32
2023-01-13T06:56:17.083Z,8.36
2023-01-13T07:00:21.165Z,8.38
2023-01-13T07:04:24.056Z,8.43
2023-01-13T07:08:27.287Z,8.40
2023-01-13T07:12:51.553Z,8.41
2023-01-13T07:16:54.692Z,8.44
2023-01-13T07:21:00.925Z,8.44
2023-01-13T07:25:04.135Z,8.42
2023-01-13T07:29:08.927Z,8.47
2023-01-13T07:33:11.990Z,8.42
2023-01-13T07:37:15.214Z,8.43
2023-01-13T07:41:36.060Z,8.44
2023-01-13T07:45:44.366Z,8.42
2023-01-13T07:49:48.438Z,8.38
2023-01-13T07:53:52.228Z,8.37
2023-01-13T07:57:55.698Z,8.35
2023-01-13T08:02:00.196Z,8.32
2023-01-13T08:06:04.523Z,8.35
2023-01-13T08:10:08.967Z,8.32
2023-01-13T08:14:17.164Z,8.33
2023-01-13T08:18:23.991Z,8.32
2023-01-13T08:22:27.642Z,8.31
2023-01-13T08:26:31.023Z,8.30
2023-01-13T08:30:36.541Z,8.29
2023-01-13T08:34:40.827Z,8.30
2023-01-13T08:38:46.704Z,8.35
2023-01-13T08:42:52.849Z,8.33
2023-01-13T08:46:57.236Z,8.31
2023-01-13T08:51:06.971Z,8.34
2023-01-13T08:55:11.125Z,8.33
2023-01-13T08:59:16.608Z,8.33
2023-01-13T09:03:23.111Z,8.35
2023-01-13T09:07:40.005Z,8.37
2023-01-13T09:12:12.207Z,8.37
2023-01-13T09:16:15.355Z,8.38
2023-01-13T09:20:18.922Z,8.34
2023-01-13T09:24:25.602Z,8.33
2023-01-13T09:28:28.671Z,8.32
2023-01-13T09:32:32.843Z,8.34
2023-01-13T09:36:35.833Z,8.34
2023-01-13T09:40:44.561Z,8.35
2023-01-13T09:44:56.460Z,8.43
2023-01-13T09:49:01.795Z,8.53
2023-01-13T09:53:09.122Z,8.60
2023-01-13T09:57:16.146Z,8.62
2023-01-13T10:01:28.620Z,8.72
2023-01-13T10:05:37.545Z,8.74
2023-01-13T10:09:49.587Z,8.72
2023-01-13T10:13:59.200Z,8.77
2023-01-13T10:18:13.743Z,8.78
2023-01-13T10:22:25.854Z,8.74
2023-01-13T10:26:49.075Z,8.74
2023-01-13T10:30:58.631Z,8.68
2023-01-13T10:35:02.448Z,8.65
2023-01-13T10:39:11.069Z,8.54
2023-01-13T10:43:13.921Z,8.43
2023-01-13T10:47:25.627Z,8.35
2023-01-13T10:51:31.185Z,8.27
2023-01-13T10:55:38.146Z,8.17
2023-01-13T10:59:41.255Z,8.14
2023-01-13T11:03:48.027Z,8.10
2023-01-13T11:07:56.182Z,8.11
2023-01-13T11:12:00.221Z,8.08
2023-01-13T11:16:08.571Z,8.08
2023-01-13T11:20:21.757Z,8.23
2023-01-13T11:24:36.116Z,8.26
2023-01-13T11:28:46.957Z,8.34
2023-01-13T11:33:05.299Z,8.41
2023-01-13T11:37:15.844Z,8.49
2023-01-13T11:41:29.577Z,8.63
2023-01-13T11:45:41.203Z,8.66
2023-01-13T11:49:48.623Z,8.68
2023-01-13T11:54:13.553Z,8.67
2023-01-13T11:58:51.120Z,8.65
2023-01-13T12:03:04.348Z,8.60
2023-01-13T12:07:23.131Z,8.49
2023-01-13T12:11:54.872Z,8.44
2023-01-13T12:16:10.610Z,8.43
2023-01-13T12:20:26.666Z,8.47
2023-01-13T12:24:37.655Z,8.50
2023-01-13T12:28:50.132Z,8.52
2023-01-13T12:32:55.196Z,8.53
2023-01-13T12:37:08.463Z,8.63
2023-01-13T12:41:25.555Z,8.68
2023-01-13T12:45:32.376Z,8.74
2023-01-13T12:49:36.571Z,8.81
2023-01-13T12:53:39.579Z,8.85
2023-01-13T12:58:00.631Z,8.89
2023-01-13T13:02:38.971Z,8.90
2023-01-13T13:06:44.521Z,8.87
2023-01-13T13:11:01.723Z,8.92
2023-01-13T13:15:06.800Z,8.85
2023-01-13T13:19:55.759Z,8.79
2023-01-13T13:24:11.918Z,8.72
2023-01-13T13:28:20.017Z,8.71
2023-01-13T13:32:56.255Z,8.72
2023-01-13T13:37:25.816Z,8.69
2023-01-13T13:41:51.636Z,8.73
2023-01-13T13:46:12.350Z,8.74
2023-01-13T13:50:18.405Z,8.79
2023-01-13T13:54:23.924Z,8.81
2023-01-13T13:58:33.590Z,8.83
2023-01-13T14:02:38.523Z,8.85
2023-01-13T14:06:51.902Z,8.88
2023-01-13T14:10:55.118Z,8.85
2023-01-13T14:15:01.336Z,8.82
2023-01-13T14:19:04.906Z,8.82
2023-01-13T14:23:15.246Z,8.82
2023-01-13T14:27:20.374Z,8.83
2023-01-13T14:31:25.862Z,8.82
2023-01-13T14:35:30.019Z,8.81
2023-01-13T14:39:39.050Z,8.79
2023-01-13T14:43:45.275Z,8.82
2023-01-13T14:47:56.465Z,8.83
2023-01-13T14:52:15.008Z,8.82
2023-01-13T14:56:46.771Z,8.82
2023-01-13T15:00:50.061Z,8.88
2023-01-13T15:04:56.995Z,8.90
2023-01-13T15:09:00.111Z,8.91
2023-01-13T15:13:04.944Z,8.94
2023-01-13T15:17:16.543Z,8.95
2023-01-13T15:21:21.128Z,8.95
2023-01-13T15:25:24.757Z,8.95
2023-01-13T15:29:30.946Z,8.95
2023-01-13T15:33:35.680Z,8.92
2023-01-13T15:37:42.084Z,8.93
2023-01-13T15:42:02.884Z,8.94
2023-01-13T15:46:33.645Z,8.94
2023-01-13T15:50:37.663Z,8.93
2023-01-13T15:54:42.810Z,8.94
2023-01-13T15:58:46.852Z,8.96
2023-01-13T16:02:50.860Z,8.94
2023-01-13T16:06:55.286Z,8.98
2023-01-13T16:11:00.470Z,8.98
2023-01-13T16:15:04.597Z,9.00
2023-01-13T16:19:07.725Z,8.98
2023-01-13T16:23:11.070Z,8.97
2023-01-13T16:27:18.156Z,8.98
2023-01-13T16:31:26.644Z,8.98
2023-01-13T16:35:32.035Z,8.96
2023-01-13T16:39:35.136Z,8.96
2023-01-13T16:43:40.306Z,8.92
2023-01-13T16:47:44.480Z,8.87
2023-01-13T16:51:49.235Z,8.85
2023-01-13T16:55:53.054Z,8.84
2023-01-13T17:00:01.844Z,8.84
2023-01-13T17:04:05.824Z,8.83
2023-01-13T17:08:12.711Z,8.82
2023-01-13T17:12:15.878Z,8.85
2023-01-13T17:16:24.219Z,8.92
2023-01-13T17:20:33.709Z,8.89
2023-01-13T17:24:37.698Z,8.92
2023-01-13T17:28:40.760Z,8.93
2023-01-13T17:32:45.314Z,8.98
2023-01-13T17:36:50.667Z,8.97
2023-01-13T17:40:54.412Z,8.96
2023-01-13T17:44:58.417Z,8.96
2023-01-13T17:49:03.250Z,8.95
2023-01-13T17:53:06.843Z,8.98
2023-01-13T17:57:10.500Z,8.94
2023-01-13T18:01:17.184Z,8.92
2023-01-13T18:05:21.909Z,8.91
2023-01-13T18:09:25.928Z,8.84
2023-01-13T18:13:29.043Z,8.83
2023-01-13T18:17:31.899Z,8.79
2023-01-13T18:21:54.574Z,8.71
2023-01-13T18:26:15.995Z,8.59
2023-01-13T18:30:19.308Z,8.55
2023-01-13T18:34:22.712Z,8.46
2023-01-13T18:38:28.398Z,8.42
2023-01-13T18:42:48.986Z,8.39
2023-01-13T18:46:52.215Z,8.34
2023-01-13T18:50:55.875Z,8.31
2023-01-13T18:55:00.431Z,8.23
2023-01-13T18:59:05.001Z,8.14
2023-01-13T19:07:13.494Z,8.05
2023-01-13T19:11:20.509Z,8.02
2023-01-13T19:15:23.958Z,7.95
2023-01-13T19:19:27.122Z,7.92
2023-01-13T19:23:30.285Z,7.91
2023-01-13T19:27:38.836Z,7.88
2023-01-13T19:31:41.986Z,7.86
2023-01-13T19:35:45.038Z,7.82
2023-01-13T19:39:48.041Z,7.84
2023-01-13T19:44:09.514Z,7.85
2023-01-13T19:48:16.021Z,7.86
2023-01-13T19:52:22.167Z,7.86
2023-01-13T19:56:26.530Z,7.89
2023-01-13T20:00:31.150Z,7.87
2023-01-13T20:04:38.320Z,7.87
2023-01-13T20:08:41.866Z,7.77
2023-01-13T20:12:44.868Z,7.73
2023-01-13T20:16:49.266Z,7.69
2023-01-13T20:20:52.293Z,7.67
2023-01-13T20:24:55.931Z,7.66
2023-01-13T20:28:59.107Z,7.66
2023-01-13T20:33:04.306Z,7.65
2023-01-13T20:37:08.876Z,7.64
2023-01-13T20:41:25.906Z,7.69
2023-01-13T20:45:28.814Z,7.65
2023-01-13T20:49:34.328Z,7.66
2023-01-13T20:53:38.144Z,7.62
2023-01-13T20:57:41.347Z,7.61
2023-01-13T21:01:44.796Z,7.60
2023-01-13T21:05:49.188Z,7.61
2023-01-13T21:09:52.428Z,7.61
2023-01-13T21:14:12.897Z,7.66
2023-01-13T21:18:33.836Z,7.66
2023-01-13T21:22:45.559Z,7.67
2023-01-13T21:26:51.455Z,7.72
2023-01-13T21:30:54.573Z,7.68
2023-01-13T21:34:58.851Z,7.62
2023-01-13T21:39:03.330Z,7.53
2023-01-13T21:43:24.951Z,7.50
2023-01-13T21:47:45.506Z,7.45
2023-01-13T21:51:48.866Z,7.43
2023-01-13T21:55:53.750Z,7.43
2023-01-13T21:59:57.243Z,7.41
2023-01-13T22:04:22.125Z,7.37
2023-01-13T22:08:25.125Z,7.34
2023-01-13T22:12:30.624Z,7.32
2023-01-13T22:16:37.730Z,7.32
2023-01-13T22:20:42.069Z,7.25
2023-01-13T22:24:47.347Z,7.24
2023-01-13T22:28:52.655Z,7.22
2023-01-13T22:32:55.723Z,7.22
2023-01-13T22:36:59.018Z,7.20
2023-01-13T22:41:04.623Z,7.19
2023-01-13T22:45:13.304Z,7.20
2023-01-13T22:49:18.500Z,7.26
2023-01-13T22:53:22.819Z,7.31
2023-01-13T22:57:26.899Z,7.33
2023-01-13T23:01:33.890Z,7.33
2023-01-13T23:05:37.112Z,7.35
2023-01-13T23:09:40.222Z,7.34
2023-01-13T23:13:44.233Z,7.33
2023-01-13T23:17:51.177Z,7.30
2023-01-13T23:21:54.406Z,7.29
2023-01-13T23:25:57.701Z,7.26
2023-01-13T23:30:01.979Z,7.25
2023-01-13T23:34:09.379Z,7.24
2023-01-13T23:38:12.234Z,7.28
2023-01-13T23:42:15.693Z,7.30
2023-01-13T23:46:20.249Z,7.34
2023-01-13T23:50:26.624Z,7.37
2023-01-13T23:54:29.704Z,7.41
2023-01-13T23:58:33.447Z,7.43
